createdAt,value
2018-09-11T00:02:27.232Z,15.60
2018-09-11T00:04:55.541Z,15.60
2018-09-11T00:07:26.397Z,15.60
2018-09-11T00:09:55.385Z,15.60
2018-09-11T00:12:24.060Z,15.60
2018-09-11T00:14:52.540Z,15.50
2018-09-11T00:17:21.118Z,15.50
2018-09-11T00:19:49.604Z,15.50
2018-09-11T00:22:18.549Z,15.50
2018-09-11T00:24:47.088Z,15.40
2018-09-11T00:27:16.184Z,15.40
2018-09-11T00:29:44.596Z,15.40
2018-09-11T00:32:13.593Z,15.30
2018-09-11T00:34:42.605Z,15.20
2018-09-11T00:37:11.063Z,15.20
2018-09-11T00:39:41.495Z,15.20
2018-09-11T00:42:10.482Z,15.20
2018-09-11T00:44:38.670Z,15.20
2018-09-11T00:47:07.576Z,15.20
2018-09-11T00:49:35.964Z,15.20
2018-09-11T00:52:04.445Z,15.10
2018-09-11T00:54:33.610Z,15.10
2018-09-11T00:57:02.311Z,15.00
2018-09-11T00:59:31.031Z,15.00
2018-09-11T01:01:59.341Z,14.90
2018-09-11T01:04:28.181Z,14.80
2018-09-11T01:06:58.003Z,14.70
2018-09-11T01:09:26.712Z,14.80
2018-09-11T01:11:56.638Z,14.70
2018-09-11T01:14:25.602Z,14.60
2018-09-11T01:16:53.790Z,14.60
2018-09-11T01:19:24.085Z,14.60
2018-09-11T01:21:53.810Z,14.60
2018-09-11T01:24:23.008Z,14.60
2018-09-11T01:26:52.646Z,14.60
2018-09-11T01:29:21.342Z,14.60
2018-09-11T01:31:51.333Z,14.60
2018-09-11T01:34:19.514Z,14.70
2018-09-11T01:36:50.176Z,14.60
2018-09-11T01:39:19.373Z,14.40
2018-09-11T01:41:47.473Z,14.40
2018-09-11T01:44:16.314Z,14.40
2018-09-11T01:46:44.641Z,14.40
2018-09-11T01:49:14.039Z,14.30
2018-09-11T01:51:42.419Z,14.30
2018-09-11T01:54:10.899Z,14.20
2018-09-11T01:56:39.219Z,14.30
2018-09-11T01:59:07.898Z,14.30
2018-09-11T02:01:36.046Z,14.30
2018-09-11T02:04:04.967Z,14.20
2018-09-11T02:06:33.655Z,14.10
2018-09-11T02:09:02.159Z,14.10
2018-09-11T02:11:30.601Z,14.20
2018-09-11T02:13:58.801Z,14.20
2018-09-11T02:16:27.110Z,14.20
2018-09-11T02:18:55.576Z,14.20
2018-09-11T02:21:24.149Z,14.10
2018-09-11T02:23:52.343Z,14.10
2018-09-11T02:26:20.523Z,14.10
2018-09-11T02:28:49.541Z,14.00
2018-09-11T02:31:17.988Z,14.00
2018-09-11T02:33:46.168Z,13.90
2018-09-11T02:36:14.243Z,13.90
2018-09-11T02:38:42.722Z,13.90
2018-09-11T02:41:10.909Z,13.90
2018-09-11T02:43:39.164Z,13.90
2018-09-11T02:46:08.369Z,13.90
2018-09-11T02:48:36.769Z,13.90
2018-09-11T02:51:06.054Z,13.80
2018-09-11T02:53:34.351Z,13.80
2018-09-11T02:56:02.541Z,13.70
2018-09-11T02:58:30.725Z,13.60
2018-09-11T03:00:59.094Z,13.60
2018-09-11T03:03:27.382Z,13.70
2018-09-11T03:05:57.623Z,13.70
2018-09-11T03:08:27.563Z,13.60
2018-09-11T03:10:56.743Z,13.60
2018-09-11T03:13:25.249Z,13.60
2018-09-11T03:15:54.009Z,13.50
2018-09-11T03:18:22.120Z,13.40
2018-09-11T03:20:51.885Z,13.40
2018-09-11T03:23:21.515Z,13.40
2018-09-11T03:27:58.449Z,13.40
2018-09-11T03:30:27.357Z,13.30
2018-09-11T03:32:55.913Z,13.30
2018-09-11T03:35:25.544Z,13.30
2018-09-11T03:37:54.029Z,13.30
2018-09-11T03:40:23.343Z,13.20
2018-09-11T03:42:52.215Z,13.30
2018-09-11T03:45:20.300Z,13.20
2018-09-11T03:47:49.177Z,13.20
2018-09-11T03:50:20.709Z,13.20
2018-09-11T03:52:49.861Z,13.20
2018-09-11T03:55:18.112Z,13.20
2018-09-11T03:57:46.322Z,13.30
2018-09-11T04:00:14.793Z,13.20
2018-09-11T04:02:42.857Z,13.20
2018-09-11T04:05:11.259Z,13.10
2018-09-11T04:07:40.071Z,13.20
2018-09-11T04:10:10.898Z,13.20
2018-09-11T04:12:39.178Z,13.20
2018-09-11T04:15:07.527Z,13.20
2018-09-11T04:17:39.688Z,13.10
2018-09-11T04:20:08.245Z,13.20
2018-09-11T04:22:38.508Z,13.10
2018-09-11T04:25:07.624Z,13.20
2018-09-11T04:27:36.878Z,13.10
2018-09-11T04:30:05.522Z,13.10
2018-09-11T04:32:33.819Z,13.20
2018-09-11T04:35:02.117Z,13.20
2018-09-11T04:37:32.336Z,13.30
2018-09-11T04:40:01.761Z,13.30
2018-09-11T04:42:30.421Z,13.30
2018-09-11T04:44:59.405Z,13.30
2018-09-11T04:47:28.619Z,13.30
2018-09-11T04:49:57.207Z,13.30
2018-09-11T04:52:25.249Z,13.30
2018-09-11T04:54:54.526Z,13.30
2018-09-11T04:57:22.746Z,13.30
2018-09-11T04:59:51.024Z,13.30
2018-09-11T05:02:19.632Z,13.40
2018-09-11T05:04:47.598Z,13.20
2018-09-11T05:07:16.217Z,13.20
2018-09-11T05:09:44.210Z,13.20
2018-09-11T05:12:12.256Z,13.20
2018-09-11T05:14:40.321Z,13.30
2018-09-11T05:17:08.608Z,13.30
2018-09-11T05:19:36.661Z,13.30
2018-09-11T05:22:04.919Z,13.30
2018-09-11T05:24:32.920Z,13.40
2018-09-11T05:27:01.691Z,13.40
2018-09-11T05:29:30.812Z,13.30
2018-09-11T05:31:59.213Z,13.40
2018-09-11T05:34:28.407Z,13.40
2018-09-11T05:36:57.810Z,13.50
2018-09-11T05:39:27.438Z,13.60
2018-09-11T05:41:57.846Z,13.60
2018-09-11T05:44:26.628Z,13.60
2018-09-11T05:46:54.730Z,13.60
2018-09-11T05:49:22.954Z,13.70
2018-09-11T05:51:50.993Z,13.70
2018-09-11T05:54:19.101Z,13.80
2018-09-11T05:56:47.353Z,13.90
2018-09-11T05:59:16.097Z,13.90
2018-09-11T06:01:45.253Z,14.00
2018-09-11T06:04:13.464Z,14.10
2018-09-11T06:06:42.307Z,14.10
2018-09-11T06:09:18.777Z,14.20
2018-09-11T06:11:47.114Z,14.20
2018-09-11T06:14:15.457Z,14.30
2018-09-11T06:16:47.753Z,14.30
2018-09-11T06:19:16.104Z,14.40
2018-09-11T06:21:44.441Z,14.50
2018-09-11T06:24:13.037Z,14.50
2018-09-11T06:26:41.465Z,14.60
2018-09-11T06:29:09.672Z,14.70
2018-09-11T06:31:41.485Z,14.80
2018-09-11T06:34:10.292Z,14.90
2018-09-11T06:36:38.507Z,15.00
2018-09-11T06:39:09.182Z,15.10
2018-09-11T06:41:38.067Z,15.30
2018-09-11T06:44:06.378Z,15.50
2018-09-11T06:46:34.954Z,15.70
2018-09-11T06:49:03.400Z,15.80
2018-09-11T06:51:31.828Z,16.00
2018-09-11T06:54:00.597Z,16.10
2018-09-11T06:56:29.977Z,16.20
2018-09-11T06:59:44.531Z,16.30
2018-09-11T07:02:53.973Z,16.50
2018-09-11T07:09:01.505Z,16.20
2018-09-11T07:45:39.502Z,18.90
2018-09-11T08:38:04.753Z,23.80
2018-09-11T08:41:13.683Z,22.90
2018-09-11T08:48:54.847Z,23.80
2018-09-11T08:51:42.596Z,24.00
2018-09-11T09:01:00.900Z,24.20
2018-09-11T09:04:15.542Z,23.20
2018-09-11T09:07:39.518Z,24.10
2018-09-11T09:18:30.789Z,21.60
2018-09-11T09:21:20.378Z,21.30
2018-09-11T09:42:34.451Z,21.10
2018-09-11T09:45:13.365Z,21.30
2018-09-11T09:48:15.014Z,21.50
2018-09-11T09:55:13.548Z,21.10
2018-09-11T09:58:09.550Z,21.40
2018-09-11T10:01:17.752Z,21.40
2018-09-11T10:04:17.295Z,21.50
2018-09-11T10:07:33.217Z,21.40
2018-09-11T10:10:03.098Z,21.60
2018-09-11T10:12:31.800Z,21.40
2018-09-11T10:15:05.489Z,21.70
2018-09-11T10:17:36.287Z,21.40
2018-09-11T10:20:25.291Z,21.50
2018-09-11T10:24:26.355Z,21.60
2018-09-11T10:26:58.751Z,21.60
2018-09-11T10:29:30.214Z,22.10
2018-09-11T10:32:02.519Z,22.20
2018-09-11T10:34:34.811Z,22.20
2018-09-11T10:37:03.794Z,21.70
2018-09-11T10:43:17.875Z,21.70
2018-09-11T10:46:10.848Z,22.10
2018-09-11T10:48:40.344Z,22.30
2018-09-11T10:51:09.254Z,22.50
2018-09-11T10:53:37.428Z,22.20
2018-09-11T10:56:58.857Z,22.40
2018-09-11T10:59:43.058Z,22.30
2018-09-11T11:02:34.540Z,22.60
2018-09-11T11:05:08.097Z,23.00
2018-09-11T11:07:58.467Z,22.80
2018-09-11T11:11:30.503Z,22.60
2018-09-11T11:17:12.235Z,22.90
2018-09-11T11:19:53.571Z,22.80
2018-09-11T11:22:43.095Z,22.70
2018-09-11T11:25:15.442Z,22.70
2018-09-11T11:27:49.661Z,22.90
2018-09-11T11:30:18.826Z,23.00
2018-09-11T11:32:50.888Z,23.20
2018-09-11T11:38:48.661Z,23.50
2018-09-11T11:45:05.197Z,23.60
2018-09-11T11:47:37.481Z,23.70
2018-09-11T11:50:21.267Z,23.50
2018-09-11T11:56:03.481Z,23.40
2018-09-11T11:58:32.495Z,23.60
2018-09-11T12:01:08.318Z,23.80
2018-09-11T12:03:39.466Z,23.90
2018-09-11T12:06:53.749Z,23.80
2018-09-11T12:09:44.295Z,24.10
2018-09-11T12:16:24.820Z,24.30
2018-09-11T12:19:13.645Z,24.00
2018-09-11T12:21:59.562Z,24.20
2018-09-11T12:24:29.805Z,24.50
2018-09-11T12:26:59.834Z,24.50
2018-09-11T12:30:00.078Z,24.50
2018-09-11T12:33:31.317Z,24.50
2018-09-11T12:36:01.106Z,24.50
2018-09-11T12:38:53.080Z,24.70
2018-09-11T12:41:29.714Z,24.70
2018-09-11T12:43:59.472Z,24.40
2018-09-11T12:46:47.339Z,24.70
2018-09-11T12:49:47.067Z,24.60
2018-09-11T12:52:40.051Z,24.60
2018-09-11T12:58:26.178Z,25.00
2018-09-11T13:01:40.197Z,24.90
2018-09-11T13:04:45.756Z,24.70
2018-09-11T13:10:38.595Z,24.90
2018-09-11T13:13:54.571Z,25.00
2018-09-11T13:20:01.475Z,25.10
2018-09-11T13:22:32.427Z,25.30
2018-09-11T13:25:06.215Z,25.30
2018-09-11T13:27:42.199Z,25.20
2018-09-11T13:30:14.254Z,25.00
2018-09-11T13:33:29.851Z,24.90
2018-09-11T13:35:58.913Z,25.00
2018-09-11T13:38:27.245Z,25.00
2018-09-11T13:40:59.613Z,25.30
2018-09-11T13:43:29.050Z,25.10
2018-09-11T13:46:09.266Z,25.20
2018-09-11T13:48:50.375Z,25.30
2018-09-11T13:51:21.488Z,25.40
2018-09-11T13:54:08.479Z,25.40
2018-09-11T14:00:11.200Z,25.60
2018-09-11T14:02:57.241Z,25.70
2018-09-11T14:09:00.893Z,25.60
2018-09-11T14:12:00.331Z,25.80
2018-09-11T14:14:55.098Z,25.80
2018-09-11T14:17:28.369Z,25.90
2018-09-11T14:20:00.051Z,26.00
2018-09-11T14:22:31.160Z,25.80
2018-09-11T14:24:59.735Z,26.20
2018-09-11T14:27:39.544Z,25.90
2018-09-11T14:30:09.778Z,25.40
2018-09-11T14:32:40.824Z,25.20
2018-09-11T14:35:09.825Z,25.50
2018-09-11T14:37:44.163Z,25.50
2018-09-11T14:40:14.636Z,25.60
2018-09-11T14:45:46.145Z,25.90
2018-09-11T14:48:41.506Z,25.70
2018-09-11T15:02:32.577Z,25.50
2018-09-11T15:05:02.152Z,25.70
2018-09-11T15:07:30.847Z,25.70
2018-09-11T15:10:02.378Z,25.60
2018-09-11T15:12:35.933Z,25.60
2018-09-11T15:15:07.135Z,25.40
2018-09-11T15:17:58.267Z,25.60
2018-09-11T15:20:27.898Z,25.50
2018-09-11T15:23:14.760Z,25.60
2018-09-11T15:36:54.131Z,25.60
2018-09-11T15:39:23.763Z,25.60
2018-09-11T15:42:20.468Z,25.50
2018-09-11T15:48:55.528Z,25.50
2018-09-11T15:51:56.720Z,25.60
2018-09-11T15:57:09.430Z,25.60
2018-09-11T15:59:38.486Z,25.40
2018-09-11T16:02:09.584Z,25.30
2018-09-11T16:04:41.592Z,25.30
2018-09-11T16:07:11.899Z,25.20
2018-09-11T16:09:47.222Z,25.10
2018-09-11T16:12:56.211Z,25.20
2018-09-11T16:16:22.469Z,25.20
2018-09-11T16:19:13.472Z,25.20
2018-09-11T16:21:44.837Z,25.00
2018-09-11T16:24:20.412Z,25.00
2018-09-11T16:26:54.219Z,25.00
2018-09-11T16:29:26.308Z,25.00
2018-09-11T16:31:55.393Z,24.90
2018-09-11T16:41:04.276Z,24.70
2018-09-11T16:43:44.978Z,24.70
2018-09-11T16:47:20.324Z,24.70
2018-09-11T16:53:27.344Z,24.70
2018-09-11T16:56:00.707Z,24.60
2018-09-11T16:59:00.377Z,24.50
2018-09-11T17:01:45.817Z,24.60
2018-09-11T17:04:15.839Z,24.50
2018-09-11T17:07:13.356Z,24.30
2018-09-11T17:09:53.525Z,24.20
2018-09-11T17:12:23.093Z,24.20
2018-09-11T17:17:30.602Z,24.00
2018-09-11T17:19:59.334Z,24.00
2018-09-11T17:22:41.080Z,23.80
2018-09-11T17:25:12.670Z,23.70
2018-09-11T17:27:49.303Z,23.70
2018-09-11T17:30:20.465Z,23.60
2018-09-11T17:32:48.668Z,23.50
2018-09-11T17:35:19.122Z,23.50
2018-09-11T17:37:47.967Z,23.50
2018-09-11T17:40:17.250Z,23.30
2018-09-11T17:46:41.360Z,23.20
2018-09-11T17:49:13.845Z,23.10
2018-09-11T17:51:45.060Z,23.00
2018-09-11T17:54:15.225Z,22.90
2018-09-11T17:56:56.475Z,22.70
2018-09-11T18:00:07.104Z,22.70
2018-09-11T18:03:10.434Z,22.60
2018-09-11T18:06:40.756Z,22.50
2018-09-11T18:09:20.268Z,22.50
2018-09-11T18:11:56.278Z,22.30
2018-09-11T18:14:39.549Z,22.30
2018-09-11T18:17:17.672Z,22.20
2018-09-11T18:19:48.504Z,22.10
2018-09-11T18:22:30.041Z,22.00
2018-09-11T18:25:05.842Z,21.90
2018-09-11T18:27:54.243Z,21.90
2018-09-11T18:31:02.046Z,21.80
2018-09-11T18:33:36.205Z,21.70
2018-09-11T18:39:11.747Z,21.60
2018-09-11T18:41:45.238Z,21.60
2018-09-11T18:44:32.348Z,21.60
2018-09-11T18:47:07.213Z,21.60
2018-09-11T18:49:40.406Z,21.50
2018-09-11T18:52:22.175Z,21.50
2018-09-11T18:58:25.636Z,21.40
2018-09-11T19:01:10.573Z,21.30
2018-09-11T19:03:46.055Z,21.20
2018-09-11T19:06:48.944Z,21.10
2018-09-11T19:09:52.450Z,21.10
2018-09-11T19:12:24.303Z,20.90
2018-09-11T19:14:52.664Z,20.80
2018-09-11T19:17:25.075Z,20.70
2018-09-11T19:19:58.435Z,20.60
2018-09-11T19:22:34.329Z,20.50
2018-09-11T19:25:06.410Z,20.40
2018-09-11T19:27:42.186Z,20.30
2018-09-11T19:30:13.595Z,20.30
2018-09-11T19:32:48.383Z,20.20
2018-09-11T19:35:21.158Z,20.20
2018-09-11T19:38:09.616Z,20.10
2018-09-11T19:40:40.382Z,20.10
2018-09-11T19:43:18.852Z,20.10
2018-09-11T19:45:49.342Z,20.10
2018-09-11T19:54:34.545Z,20.00
2018-09-11T19:57:21.217Z,20.00
2018-09-11T20:00:00.673Z,19.90
2018-09-11T20:02:42.319Z,19.80
2018-09-11T20:05:15.023Z,19.70
2018-09-11T20:07:46.763Z,19.60
2018-09-11T20:13:31.093Z,19.50
2018-09-11T20:16:10.686Z,19.40
2018-09-11T20:18:42.324Z,19.40
2018-09-11T20:21:32.843Z,19.30
2018-09-11T20:30:48.640Z,19.10
2018-09-11T20:44:09.462Z,18.80
2018-09-11T20:46:39.946Z,18.70
2018-09-11T20:49:10.069Z,18.70
2018-09-11T20:51:40.481Z,18.60
2018-09-11T20:54:13.687Z,18.60
2018-09-11T20:56:45.352Z,18.60
2018-09-11T20:59:19.349Z,18.60
2018-09-11T21:01:51.483Z,18.50
2018-09-11T21:04:24.204Z,18.40
2018-09-11T21:06:56.535Z,18.40
2018-09-11T21:09:33.924Z,18.30
2018-09-11T21:12:40.070Z,18.20
2018-09-11T21:18:45.599Z,18.20
2018-09-11T21:21:30.743Z,18.10
2018-09-11T21:24:05.796Z,18.10
2018-09-11T21:26:56.640Z,18.00
2018-09-11T21:29:39.681Z,18.00
2018-09-11T21:32:16.388Z,17.90
2018-09-11T21:34:53.403Z,17.90
2018-09-11T21:37:34.134Z,17.80
2018-09-11T21:40:23.796Z,17.80
2018-09-11T21:43:02.860Z,17.70
2018-09-11T21:45:46.339Z,17.70
2018-09-11T21:48:33.154Z,17.70
2018-09-11T21:51:17.192Z,17.60
2018-09-11T21:54:08.154Z,17.60
2018-09-11T21:56:48.724Z,17.60
2018-09-11T21:59:30.670Z,17.50
2018-09-11T22:02:04.798Z,17.40
2018-09-11T22:04:35.345Z,17.30
2018-09-11T22:07:05.050Z,17.10
2018-09-11T22:09:37.742Z,17.10
2018-09-11T22:12:16.086Z,17.10
2018-09-11T22:14:57.737Z,17.00
2018-09-11T22:17:32.013Z,16.90
2018-09-11T22:20:01.929Z,16.90
2018-09-11T22:22:41.435Z,16.80
2018-09-11T22:25:11.459Z,16.80
2018-09-11T22:27:42.329Z,16.70
2018-09-11T22:30:20.317Z,16.70
2018-09-11T22:32:58.644Z,16.70
2018-09-11T22:35:43.865Z,16.60
2018-09-11T22:38:15.245Z,16.60
2018-09-11T22:40:48.468Z,16.50
2018-09-11T22:43:23.125Z,16.50
2018-09-11T22:46:02.234Z,16.50
2018-09-11T22:48:37.077Z,16.50
2018-09-11T22:51:13.103Z,16.50
2018-09-11T22:53:45.868Z,16.50
2018-09-11T22:56:17.307Z,16.40
2018-09-11T22:58:49.225Z,16.40
2018-09-11T23:01:18.602Z,16.40
2018-09-11T23:03:50.416Z,16.40
2018-09-11T23:06:25.661Z,16.40
2018-09-11T23:08:57.573Z,16.30
2018-09-11T23:11:43.072Z,16.30
2018-09-11T23:14:12.193Z,16.20
2018-09-11T23:16:54.861Z,16.20
2018-09-11T23:19:25.202Z,16.20
2018-09-11T23:21:53.628Z,16.20
2018-09-11T23:24:23.364Z,16.10
2018-09-11T23:26:53.261Z,16.10
2018-09-11T23:29:22.211Z,16.10
2018-09-11T23:31:51.486Z,16.10
2018-09-11T23:34:21.502Z,16.00
2018-09-11T23:36:49.995Z,16.00
2018-09-11T23:39:19.385Z,16.00
2018-09-11T23:41:48.752Z,16.00
2018-09-11T23:44:19.896Z,15.90
2018-09-11T23:46:48.047Z,15.90
2018-09-11T23:49:17.701Z,15.90
2018-09-11T23:51:46.497Z,15.70
2018-09-11T23:54:15.912Z,15.70
2018-09-11T23:56:44.456Z,15.70
2018-09-11T23:59:15.677Z,15.60
